createdAt,value
2023-05-13T00:01:59.980Z,8.38
2023-05-13T00:04:27.043Z,8.10
2023-05-13T00:06:54.314Z,7.84
2023-05-13T00:09:21.429Z,7.60
2023-05-13T00:11:48.833Z,7.40
2023-05-13T00:14:16.006Z,7.23
2023-05-13T00:16:43.485Z,7.67
2023-05-13T00:19:10.902Z,8.28
2023-05-13T00:21:38.026Z,8.38
2023-05-13T00:24:05.911Z,8.19
2023-05-13T00:26:33.155Z,7.92
2023-05-13T00:29:00.576Z,7.68
2023-05-13T00:31:27.892Z,7.47
2023-05-13T00:33:55.000Z,7.31
2023-05-13T00:36:22.098Z,7.15
2023-05-13T00:38:49.323Z,7.61
2023-05-13T00:41:16.396Z,8.25
2023-05-13T00:43:45.152Z,8.40
2023-05-13T00:46:12.404Z,8.26
2023-05-13T00:48:39.633Z,8.05
2023-05-13T00:51:07.076Z,7.84
2023-05-13T00:53:34.096Z,7.67
2023-05-13T00:56:01.164Z,7.53
2023-05-13T00:58:28.315Z,7.37
2023-05-13T01:01:01.737Z,7.86
2023-05-13T01:03:35.444Z,8.56
2023-05-13T01:06:08.195Z,8.68
2023-05-13T01:09:01.167Z,8.55
2023-05-13T01:11:29.819Z,8.29
2023-05-13T01:14:04.126Z,8.07
2023-05-13T01:16:35.672Z,7.86
2023-05-13T01:19:07.569Z,7.68
2023-05-13T01:21:36.573Z,7.52
2023-05-13T01:24:03.893Z,8.06
2023-05-13T01:26:31.463Z,8.73
2023-05-13T01:28:58.724Z,8.87
2023-05-13T01:31:25.942Z,8.76
2023-05-13T01:33:54.014Z,8.56
2023-05-13T01:36:22.285Z,8.34
2023-05-13T01:38:49.569Z,8.14
2023-05-13T01:41:16.572Z,7.95
2023-05-13T01:43:43.808Z,7.75
2023-05-13T01:46:14.086Z,8.16
2023-05-13T01:48:41.586Z,8.76
2023-05-13T01:51:10.891Z,8.78
2023-05-13T01:53:38.634Z,8.54
2023-05-13T01:56:09.098Z,8.23
2023-05-13T01:58:36.898Z,7.92
2023-05-13T02:01:04.872Z,7.62
2023-05-13T02:03:32.054Z,7.33
2023-05-13T02:05:59.392Z,7.07
2023-05-13T02:08:27.823Z,6.78
2023-05-13T02:10:59.147Z,7.19
2023-05-13T02:13:28.542Z,7.78
2023-05-13T02:15:55.848Z,7.81
2023-05-13T02:18:23.331Z,7.61
2023-05-13T02:20:50.644Z,7.35
2023-05-13T02:23:18.038Z,7.07
2023-05-13T02:25:45.157Z,6.83
2023-05-13T02:28:14.014Z,6.63
2023-05-13T02:30:41.952Z,6.47
2023-05-13T02:33:09.676Z,6.29
2023-05-13T02:35:37.532Z,6.77
2023-05-13T02:38:05.392Z,7.43
2023-05-13T02:40:32.858Z,7.56
2023-05-13T02:43:00.134Z,7.38
2023-05-13T02:45:33.552Z,7.13
2023-05-13T02:48:01.082Z,6.88
2023-05-13T02:50:28.043Z,6.67
2023-05-13T02:52:55.628Z,6.51
2023-05-13T02:55:24.200Z,6.39
2023-05-13T02:57:51.343Z,6.94
2023-05-13T03:00:19.060Z,7.65
2023-05-13T03:02:47.060Z,7.84
2023-05-13T03:05:14.197Z,7.76
2023-05-13T03:07:42.533Z,7.60
2023-05-13T03:10:10.234Z,7.44
2023-05-13T03:12:37.812Z,7.31
2023-05-13T03:15:07.040Z,7.22
2023-05-13T03:17:34.477Z,7.10
2023-05-13T03:20:01.578Z,7.65
2023-05-13T03:22:28.681Z,8.34
2023-05-13T03:24:57.331Z,8.51
2023-05-13T03:27:26.313Z,8.42
2023-05-13T03:29:53.472Z,8.26
2023-05-13T03:32:20.959Z,8.12
2023-05-13T03:34:48.046Z,8.00
2023-05-13T03:37:16.662Z,7.90
2023-05-13T03:39:43.914Z,7.81
2023-05-13T03:42:11.018Z,8.34
2023-05-13T03:44:38.344Z,9.02
2023-05-13T03:47:06.083Z,9.18
2023-05-13T03:49:33.397Z,9.09
2023-05-13T03:52:00.603Z,8.92
2023-05-13T03:54:27.927Z,8.77
2023-05-13T03:56:55.063Z,8.63
2023-05-13T03:59:22.158Z,8.52
2023-05-13T04:01:49.338Z,8.42
2023-05-13T04:04:16.337Z,8.33
2023-05-13T04:06:43.511Z,8.92
2023-05-13T04:09:10.884Z,9.68
2023-05-13T04:11:37.992Z,9.94
2023-05-13T04:14:04.926Z,9.91
2023-05-13T04:16:32.226Z,9.81
2023-05-13T04:18:59.418Z,9.61
2023-05-13T04:21:27.800Z,9.45
2023-05-13T04:23:54.857Z,9.33
2023-05-13T04:26:22.916Z,9.19
2023-05-13T04:28:51.797Z,9.11
2023-05-13T04:31:19.205Z,9.08
2023-05-13T04:33:46.323Z,9.74
2023-05-13T04:36:15.081Z,10.57
2023-05-13T04:38:43.203Z,10.88
2023-05-13T04:41:10.215Z,10.88
2023-05-13T04:43:41.911Z,10.79
2023-05-13T04:46:09.180Z,10.69
2023-05-13T04:48:36.639Z,10.64
2023-05-13T04:51:04.182Z,10.65
2023-05-13T04:53:32.215Z,10.77
2023-05-13T04:56:02.009Z,10.87
2023-05-13T04:58:30.487Z,10.94
2023-05-13T05:00:57.645Z,11.02
2023-05-13T05:03:25.385Z,11.10
2023-05-13T05:05:52.706Z,11.27
2023-05-13T05:08:20.058Z,12.09
2023-05-13T05:10:48.870Z,12.97
2023-05-13T05:13:16.374Z,13.25
2023-05-13T05:15:44.222Z,13.25
2023-05-13T05:18:11.824Z,13.18
2023-05-13T05:20:39.701Z,13.10
2023-05-13T05:23:11.063Z,13.09
2023-05-13T05:25:38.660Z,13.02
2023-05-13T05:28:05.834Z,13.07
2023-05-13T05:30:40.097Z,13.24
2023-05-13T05:33:13.135Z,13.35
2023-05-13T05:35:41.689Z,13.39
2023-05-13T05:38:10.979Z,13.37
2023-05-13T05:40:44.262Z,13.27
2023-05-13T05:43:11.743Z,13.23
2023-05-13T05:45:39.031Z,13.24
2023-05-13T05:48:07.836Z,13.28
2023-05-13T05:50:35.065Z,13.35
2023-05-13T05:53:04.096Z,13.42
2023-05-13T05:55:33.739Z,13.42
2023-05-13T05:58:06.550Z,13.46
2023-05-13T06:00:36.835Z,13.50
2023-05-13T06:03:04.342Z,13.50
2023-05-13T06:05:31.749Z,13.48
2023-05-13T06:07:58.808Z,13.47
2023-05-13T06:10:25.994Z,13.46
2023-05-13T06:12:53.294Z,13.45
2023-05-13T06:15:20.900Z,13.39
2023-05-13T06:17:47.959Z,13.36
2023-05-13T06:20:15.022Z,13.39
2023-05-13T06:22:42.675Z,13.51
2023-05-13T06:25:10.086Z,13.67
2023-05-13T06:27:37.168Z,13.82
2023-05-13T06:30:04.715Z,13.95
2023-05-13T06:32:33.508Z,14.11
2023-05-13T06:35:00.618Z,14.43
2023-05-13T06:37:28.035Z,14.87
2023-05-13T06:39:55.517Z,15.25
2023-05-13T06:42:23.457Z,15.58
2023-05-13T06:44:58.057Z,16.07
2023-05-13T06:47:28.470Z,16.48
2023-05-13T06:49:55.933Z,16.90
2023-05-13T06:52:22.918Z,17.19
2023-05-13T06:54:50.047Z,17.39
2023-05-13T06:57:17.927Z,17.53
2023-05-13T06:59:45.226Z,17.67
2023-05-13T07:02:13.249Z,17.81
2023-05-13T07:04:40.539Z,18.01
2023-05-13T07:07:07.518Z,18.36
2023-05-13T07:09:35.323Z,18.63
2023-05-13T07:12:03.335Z,18.71
2023-05-13T07:14:30.527Z,18.72
2023-05-13T07:16:58.873Z,18.71
2023-05-13T07:19:26.161Z,18.73
2023-05-13T07:21:53.251Z,18.68
2023-05-13T07:24:20.364Z,18.69
2023-05-13T07:26:47.331Z,18.80
2023-05-13T07:29:14.499Z,19.04
2023-05-13T07:31:41.956Z,19.29
2023-05-13T07:34:09.047Z,19.57
2023-05-13T07:36:36.100Z,20.07
2023-05-13T07:39:03.362Z,20.55
2023-05-13T07:41:30.449Z,21.00
2023-05-13T07:43:57.616Z,21.53
2023-05-13T07:46:24.721Z,22.19
2023-05-13T07:48:51.859Z,22.84
2023-05-13T07:51:18.850Z,23.42
2023-05-13T07:53:47.127Z,23.82
2023-05-13T07:56:14.254Z,24.30
2023-05-13T07:58:41.337Z,24.75
2023-05-13T08:01:08.583Z,25.15
2023-05-13T08:03:36.842Z,25.58
2023-05-13T08:06:04.297Z,25.91
2023-05-13T08:08:31.868Z,26.21
2023-05-13T08:10:59.042Z,26.43
2023-05-13T08:13:28.205Z,26.46
2023-05-13T08:15:55.499Z,26.65
2023-05-13T08:18:22.827Z,26.80
2023-05-13T08:20:50.053Z,26.79
2023-05-13T08:23:17.258Z,26.48
2023-05-13T08:25:44.314Z,26.29
2023-05-13T08:28:11.329Z,26.23
2023-05-13T08:30:40.817Z,26.15
2023-05-13T08:33:08.593Z,25.83
2023-05-13T08:35:35.739Z,25.84
2023-05-13T08:38:05.468Z,25.85
2023-05-13T08:40:33.019Z,25.82
2023-05-13T08:43:01.705Z,25.53
2023-05-13T08:45:32.403Z,24.85
2023-05-13T08:48:02.788Z,24.63
2023-05-13T08:50:29.881Z,24.25
2023-05-13T08:52:58.422Z,24.28
2023-05-13T08:55:25.568Z,24.58
2023-05-13T08:57:53.126Z,24.78
2023-05-13T09:00:21.835Z,24.83
2023-05-13T09:02:50.394Z,24.97
2023-05-13T09:05:17.689Z,24.92
2023-05-13T09:07:44.865Z,24.44
2023-05-13T09:10:12.041Z,24.59
2023-05-13T09:12:41.906Z,24.57
2023-05-13T09:15:10.200Z,24.03
2023-05-13T09:17:39.814Z,24.16
2023-05-13T09:20:08.222Z,24.17
2023-05-13T09:22:35.298Z,24.31
2023-05-13T09:25:02.451Z,24.45
2023-05-13T09:27:38.278Z,24.26
2023-05-13T09:30:06.121Z,24.32
2023-05-13T09:32:33.878Z,24.36
2023-05-13T09:35:17.144Z,24.55
2023-05-13T09:37:47.913Z,24.45
2023-05-13T09:40:15.369Z,24.21
2023-05-13T09:42:45.706Z,24.14
2023-05-13T09:45:13.702Z,24.09
2023-05-13T09:47:41.210Z,23.86
2023-05-13T09:50:09.272Z,23.36
2023-05-13T09:52:36.964Z,22.75
2023-05-13T09:55:05.257Z,22.49
2023-05-13T09:57:32.926Z,22.45
2023-05-13T10:00:00.673Z,22.51
2023-05-13T10:02:28.230Z,22.50
2023-05-13T10:04:56.095Z,22.52
2023-05-13T10:07:25.683Z,22.48
2023-05-13T10:09:54.486Z,22.21
2023-05-13T10:12:24.303Z,21.94
2023-05-13T10:14:54.824Z,21.87
2023-05-13T10:18:12.299Z,21.51
2023-05-13T10:20:39.477Z,21.75
2023-05-13T10:23:06.795Z,21.92
2023-05-13T10:25:33.901Z,22.13
2023-05-13T10:28:00.976Z,22.19
2023-05-13T10:30:28.000Z,22.07
2023-05-13T10:32:55.204Z,21.97
2023-05-13T10:35:22.280Z,21.99
2023-05-13T10:38:08.724Z,22.02
2023-05-13T10:40:50.002Z,21.83
2023-05-13T10:43:30.269Z,21.41
2023-05-13T10:46:01.948Z,21.19
2023-05-13T10:48:43.779Z,21.48
2023-05-13T10:51:14.617Z,21.44
2023-05-13T10:53:47.022Z,21.14
2023-05-13T10:56:14.120Z,20.93
2023-05-13T10:58:41.217Z,20.80
2023-05-13T11:01:28.890Z,20.77
2023-05-13T11:04:03.114Z,20.80
2023-05-13T11:06:37.156Z,20.95
2023-05-13T11:09:08.202Z,21.12
2023-05-13T11:11:35.749Z,21.28
2023-05-13T11:14:17.019Z,21.68
2023-05-13T11:16:47.841Z,22.09
2023-05-13T11:19:21.699Z,22.35
2023-05-13T11:21:51.965Z,22.76
2023-05-13T11:24:19.592Z,22.73
2023-05-13T11:26:49.942Z,22.53
2023-05-13T11:29:33.628Z,22.40
2023-05-13T11:32:01.664Z,22.57
2023-05-13T11:34:29.460Z,22.79
2023-05-13T11:37:06.033Z,23.04
2023-05-13T11:39:33.281Z,23.34
2023-05-13T11:42:03.592Z,23.70
2023-05-13T11:44:31.168Z,24.00
2023-05-13T11:46:59.794Z,23.51
2023-05-13T11:49:35.883Z,23.39
2023-05-13T11:52:07.649Z,23.53
2023-05-13T11:54:48.971Z,23.73
2023-05-13T11:57:23.224Z,23.52
2023-05-13T12:00:01.145Z,23.33
2023-05-13T12:02:29.870Z,23.03
2023-05-13T12:05:00.221Z,22.59
2023-05-13T12:07:27.432Z,22.39
2023-05-13T12:09:56.750Z,22.10
2023-05-13T12:12:25.132Z,22.06
2023-05-13T12:14:53.007Z,22.14
2023-05-13T12:17:20.590Z,22.07
2023-05-13T12:20:11.119Z,22.32
2023-05-13T12:22:44.483Z,22.40
2023-05-13T12:25:46.978Z,22.41
2023-05-13T12:28:17.950Z,22.33
2023-05-13T12:31:00.609Z,22.41
2023-05-13T12:33:31.499Z,22.35
2023-05-13T12:36:21.762Z,22.58
2023-05-13T12:39:05.551Z,22.96
2023-05-13T12:41:37.249Z,23.08
2023-05-13T12:44:05.607Z,23.21
2023-05-13T12:46:32.982Z,23.41
2023-05-13T12:49:01.110Z,23.54
2023-05-13T12:51:28.413Z,23.57
2023-05-13T12:53:58.225Z,23.58
2023-05-13T12:56:26.060Z,23.57
2023-05-13T12:58:53.787Z,23.59
2023-05-13T13:01:20.961Z,23.52
2023-05-13T13:03:49.480Z,23.45
2023-05-13T13:06:17.410Z,23.33
2023-05-13T13:08:44.675Z,23.25
2023-05-13T13:11:15.110Z,23.29
2023-05-13T13:13:42.295Z,23.32
2023-05-13T13:16:09.631Z,23.33
2023-05-13T13:18:36.992Z,23.22
2023-05-13T13:21:05.470Z,23.02
2023-05-13T13:23:32.623Z,22.97
2023-05-13T13:25:59.801Z,22.92
2023-05-13T13:28:27.216Z,22.70
2023-05-13T13:30:54.476Z,22.70
2023-05-13T13:33:22.374Z,22.82
2023-05-13T13:35:49.587Z,22.87
2023-05-13T13:38:16.988Z,22.78
2023-05-13T13:40:44.058Z,22.68
2023-05-13T13:43:11.138Z,22.69
2023-05-13T13:45:38.983Z,22.61
2023-05-13T13:48:06.357Z,22.52
2023-05-13T13:50:34.092Z,22.45
2023-05-13T13:53:00.975Z,22.51
2023-05-13T13:55:27.958Z,22.63
2023-05-13T13:57:55.072Z,22.59
2023-05-13T14:00:22.191Z,22.52
2023-05-13T14:02:49.388Z,22.56
2023-05-13T14:05:16.823Z,22.59
2023-05-13T14:07:43.826Z,22.60
2023-05-13T14:10:11.354Z,22.51
2023-05-13T14:12:38.488Z,22.29
2023-05-13T14:15:06.644Z,22.32
2023-05-13T14:17:34.639Z,22.41
2023-05-13T14:20:01.861Z,22.49
2023-05-13T14:22:29.329Z,22.53
2023-05-13T14:24:56.308Z,22.56
2023-05-13T14:27:24.705Z,22.51
2023-05-13T14:29:52.089Z,22.42
2023-05-13T14:32:19.335Z,22.27
2023-05-13T14:34:46.366Z,22.22
2023-05-13T14:37:13.380Z,22.27
2023-05-13T14:39:40.737Z,22.24
2023-05-13T14:42:07.864Z,22.19
2023-05-13T14:44:35.030Z,22.15
2023-05-13T14:47:02.065Z,22.06
2023-05-13T14:49:29.327Z,21.94
2023-05-13T14:51:56.447Z,21.84
2023-05-13T14:54:23.433Z,21.68
2023-05-13T14:56:51.394Z,21.61
2023-05-13T14:59:18.686Z,21.62
2023-05-13T15:01:45.958Z,21.61
2023-05-13T15:04:13.065Z,21.52
2023-05-13T15:06:40.916Z,21.52
2023-05-13T15:09:08.649Z,21.61
2023-05-13T15:11:37.324Z,21.65
2023-05-13T15:14:04.562Z,21.62
2023-05-13T15:16:31.779Z,21.63
2023-05-13T15:18:58.852Z,21.59
2023-05-13T15:21:25.917Z,21.49
2023-05-13T15:23:52.912Z,21.41
2023-05-13T15:26:20.071Z,21.41
2023-05-13T15:28:47.137Z,21.40
2023-05-13T15:31:15.918Z,21.30
2023-05-13T15:33:45.119Z,21.13
2023-05-13T15:36:12.568Z,21.05
2023-05-13T15:38:39.852Z,21.03
2023-05-13T15:41:07.041Z,21.07
2023-05-13T15:43:34.609Z,21.08
2023-05-13T15:46:01.887Z,21.00
2023-05-13T15:48:29.224Z,20.83
2023-05-13T15:50:56.221Z,20.71
2023-05-13T15:53:23.913Z,20.64
2023-05-13T15:55:51.460Z,20.55
2023-05-13T15:58:20.310Z,20.46
2023-05-13T16:00:47.601Z,20.32
2023-05-13T16:03:15.485Z,20.28
2023-05-13T16:05:42.592Z,20.20
2023-05-13T16:08:09.912Z,20.20
2023-05-13T16:10:37.814Z,20.13
2023-05-13T16:13:05.396Z,19.99
2023-05-13T16:15:32.378Z,19.89
2023-05-13T16:17:59.445Z,19.79
2023-05-13T16:20:26.895Z,19.73
2023-05-13T16:22:54.220Z,19.73
2023-05-13T16:25:23.033Z,19.71
2023-05-13T16:27:51.348Z,19.67
2023-05-13T16:30:18.486Z,19.65
2023-05-13T16:32:49.500Z,19.56
2023-05-13T16:35:20.117Z,19.49
2023-05-13T16:37:47.335Z,19.40
2023-05-13T16:40:14.599Z,19.32
2023-05-13T16:42:42.346Z,19.26
2023-05-13T16:45:09.689Z,19.18
2023-05-13T16:47:37.229Z,19.10
2023-05-13T16:50:04.730Z,19.00
2023-05-13T16:52:34.116Z,18.95
2023-05-13T16:55:01.064Z,18.93
2023-05-13T16:57:28.203Z,18.91
2023-05-13T16:59:55.452Z,18.87
2023-05-13T17:02:22.492Z,18.80
2023-05-13T17:04:49.764Z,18.73
2023-05-13T17:07:16.745Z,18.69
2023-05-13T17:09:44.789Z,18.65
2023-05-13T17:12:12.903Z,18.61
2023-05-13T17:14:40.111Z,18.60
2023-05-13T17:17:07.153Z,18.56
2023-05-13T17:19:34.391Z,18.50
2023-05-13T17:22:01.419Z,18.42
2023-05-13T17:24:29.792Z,18.34
2023-05-13T17:26:56.791Z,18.26
2023-05-13T17:29:25.752Z,18.17
2023-05-13T17:31:53.945Z,18.10
2023-05-13T17:34:21.040Z,18.03
2023-05-13T17:36:49.998Z,17.96
2023-05-13T17:39:17.250Z,17.88
2023-05-13T17:41:44.884Z,17.78
2023-05-13T17:44:12.053Z,17.68
2023-05-13T17:46:39.295Z,17.55
2023-05-13T17:49:06.727Z,17.44
2023-05-13T17:51:33.977Z,17.34
2023-05-13T17:54:00.965Z,17.25
2023-05-13T17:56:28.360Z,17.14
2023-05-13T17:58:55.544Z,17.02
2023-05-13T18:01:22.668Z,16.93
2023-05-13T18:03:49.649Z,16.82
2023-05-13T18:06:16.720Z,16.65
2023-05-13T18:08:43.936Z,16.47
2023-05-13T18:11:10.867Z,16.29
2023-05-13T18:13:38.141Z,16.13
2023-05-13T18:16:06.212Z,16.02
2023-05-13T18:18:33.521Z,15.93
2023-05-13T18:21:01.966Z,15.87
2023-05-13T18:23:28.986Z,15.81
2023-05-13T18:25:56.577Z,15.73
2023-05-13T18:28:24.920Z,15.64
2023-05-13T18:30:52.065Z,15.59
2023-05-13T18:33:20.115Z,15.54
2023-05-13T18:35:47.179Z,15.49
2023-05-13T18:38:14.168Z,15.45
2023-05-13T18:40:41.167Z,15.38
2023-05-13T18:43:08.115Z,15.33
2023-05-13T18:45:35.310Z,15.27
2023-05-13T18:48:02.467Z,15.18
2023-05-13T18:50:29.617Z,15.10
2023-05-13T18:52:56.827Z,15.01
2023-05-13T18:55:23.824Z,14.92
2023-05-13T18:57:50.976Z,14.83
2023-05-13T19:00:18.572Z,14.77
2023-05-13T19:02:46.123Z,14.71
2023-05-13T19:05:13.193Z,14.66
2023-05-13T19:07:40.531Z,14.59
2023-05-13T19:10:07.692Z,14.51
2023-05-13T19:12:34.896Z,14.43
2023-05-13T19:15:02.028Z,14.34
2023-05-13T19:17:30.433Z,14.27
2023-05-13T19:20:00.250Z,14.19
2023-05-13T19:22:27.513Z,14.12
2023-05-13T19:24:54.766Z,14.04
2023-05-13T19:27:22.244Z,13.96
2023-05-13T19:29:49.520Z,13.88
2023-05-13T19:32:16.866Z,13.81
2023-05-13T19:34:43.984Z,13.73
2023-05-13T19:37:11.090Z,13.67
2023-05-13T19:39:38.621Z,13.58
2023-05-13T19:42:05.979Z,13.50
2023-05-13T19:44:34.698Z,13.41
2023-05-13T19:47:01.922Z,13.31
2023-05-13T19:49:29.329Z,13.22
2023-05-13T19:51:57.559Z,13.14
2023-05-13T19:54:24.753Z,13.05
2023-05-13T19:56:51.775Z,12.97
2023-05-13T19:59:18.864Z,12.90
2023-05-13T20:01:46.102Z,12.82
2023-05-13T20:04:13.258Z,12.75
2023-05-13T20:06:40.610Z,12.68
2023-05-13T20:09:08.662Z,12.58
2023-05-13T20:11:36.323Z,13.08
2023-05-13T20:14:03.933Z,13.75
2023-05-13T20:16:30.929Z,13.90
2023-05-13T20:18:58.021Z,13.77
2023-05-13T20:21:27.433Z,13.53
2023-05-13T20:23:54.583Z,13.31
2023-05-13T20:26:22.051Z,13.08
2023-05-13T20:28:51.470Z,12.88
2023-05-13T20:31:18.740Z,12.71
2023-05-13T20:33:46.121Z,12.54
2023-05-13T20:36:13.150Z,12.38
2023-05-13T20:38:41.901Z,12.23
2023-05-13T20:41:09.328Z,12.09
2023-05-13T20:43:39.176Z,12.55
2023-05-13T20:46:09.993Z,13.18
2023-05-13T20:48:37.056Z,13.32
2023-05-13T20:51:05.173Z,13.15
2023-05-13T20:53:33.816Z,12.89
2023-05-13T20:56:02.861Z,12.62
2023-05-13T20:58:30.725Z,12.39
2023-05-13T21:00:57.821Z,12.18
2023-05-13T21:03:25.450Z,11.99
2023-05-13T21:05:52.434Z,11.83
2023-05-13T21:08:19.447Z,11.67
2023-05-13T21:10:46.317Z,12.11
2023-05-13T21:13:13.550Z,12.73
2023-05-13T21:15:40.599Z,12.82
2023-05-13T21:18:07.645Z,12.63
2023-05-13T21:20:34.735Z,12.39
2023-05-13T21:23:01.958Z,12.16
2023-05-13T21:25:29.005Z,11.94
2023-05-13T21:27:55.965Z,11.72
2023-05-13T21:30:23.124Z,11.51
2023-05-13T21:32:50.713Z,11.34
2023-05-13T21:35:18.397Z,11.19
2023-05-13T21:37:47.363Z,11.08
2023-05-13T21:40:14.940Z,10.95
2023-05-13T21:42:42.067Z,11.50
2023-05-13T21:45:09.473Z,12.15
2023-05-13T21:47:36.924Z,12.24
2023-05-13T21:50:06.923Z,12.07
2023-05-13T21:52:34.793Z,11.82
2023-05-13T21:55:02.125Z,11.58
2023-05-13T21:57:29.320Z,11.35
2023-05-13T21:59:56.384Z,11.14
2023-05-13T22:02:23.467Z,10.98
2023-05-13T22:04:51.089Z,10.84
2023-05-13T22:07:18.424Z,10.68
2023-05-13T22:09:46.046Z,11.18
2023-05-13T22:12:14.173Z,11.81
2023-05-13T22:14:41.713Z,11.89
2023-05-13T22:17:10.186Z,11.72
2023-05-13T22:19:38.058Z,11.48
2023-05-13T22:22:05.362Z,11.23
2023-05-13T22:24:33.353Z,10.98
2023-05-13T22:27:00.623Z,10.75
2023-05-13T22:29:28.382Z,10.53
2023-05-13T22:31:57.614Z,10.33
2023-05-13T22:34:26.043Z,10.77
2023-05-13T22:36:53.194Z,11.39
2023-05-13T22:39:20.650Z,11.50
2023-05-13T22:41:47.748Z,11.32
2023-05-13T22:44:14.818Z,11.07
2023-05-13T22:46:41.893Z,10.84
2023-05-13T22:49:10.435Z,10.61
2023-05-13T22:51:37.568Z,10.43
2023-05-13T22:54:04.644Z,10.25
2023-05-13T22:56:32.247Z,10.68
2023-05-13T22:58:59.301Z,11.31
2023-05-13T23:01:26.372Z,11.42
2023-05-13T23:03:53.500Z,11.28
2023-05-13T23:06:20.562Z,11.05
2023-05-13T23:08:48.074Z,10.83
2023-05-13T23:11:15.395Z,10.62
2023-05-13T23:13:42.555Z,10.44
2023-05-13T23:16:09.809Z,10.26
2023-05-13T23:18:36.998Z,10.69
2023-05-13T23:21:04.717Z,11.29
2023-05-13T23:23:32.977Z,11.39
2023-05-13T23:25:59.875Z,11.20
2023-05-13T23:28:26.937Z,10.93
2023-05-13T23:30:54.402Z,10.63
2023-05-13T23:33:21.930Z,10.34
2023-05-13T23:35:55.568Z,10.09
2023-05-13T23:38:23.282Z,9.84
2023-05-13T23:40:50.329Z,10.28
2023-05-13T23:43:17.668Z,10.88
2023-05-13T23:45:45.887Z,10.98
2023-05-13T23:48:13.170Z,10.82
2023-05-13T23:50:41.463Z,10.58
2023-05-13T23:53:08.722Z,10.31
2023-05-13T23:55:35.948Z,10.07
2023-05-13T23:58:02.954Z,9.86
